sensor_id;sensor_type;location;lat;lon;timestamp;P1;durP1;ratioP1;P2;durP2;ratioP2
30571;SDS011;17348;50.948;10.696;2023-09-19T00:01:37;5.35;;;1.13;;
30571;SDS011;17348;50.948;10.696;2023-09-19T00:04:40;3.63;;;1.50;;
30571;SDS011;17348;50.948;10.696;2023-09-19T00:07:43;6.03;;;1.15;;
30571;SDS011;17348;50.948;10.696;2023-09-19T00:10:46;4.18;;;0.90;;
30571;SDS011;17348;50.948;10.696;2023-09-19T00:13:50;5.55;;;1.27;;
30571;SDS011;17348;50.948;10.696;2023-09-19T00:16:52;4.15;;;0.88;;
30571;SDS011;17348;50.948;10.696;2023-09-19T00:19:55;2.05;;;1.00;;
30571;SDS011;17348;50.948;10.696;2023-09-19T00:22:57;2.05;;;1.10;;
30571;SDS011;17348;50.948;10.696;2023-09-19T00:26:05;3.53;;;0.90;;
30571;SDS011;17348;50.948;10.696;2023-09-19T00:29:09;1.08;;;0.90;;
30571;SDS011;17348;50.948;10.696;2023-09-19T00:32:12;2.08;;;0.75;;
30571;SDS011;17348;50.948;10.696;2023-09-19T00:35:14;9.43;;;1.08;;
30571;SDS011;17348;50.948;10.696;2023-09-19T00:38:17;2.92;;;1.15;;
30571;SDS011;17348;50.948;10.696;2023-09-19T00:41:21;3.22;;;0.88;;
30571;SDS011;17348;50.948;10.696;2023-09-19T00:44:26;4.82;;;1.20;;
30571;SDS011;17348;50.948;10.696;2023-09-19T00:47:29;5.40;;;1.23;;
30571;SDS011;17348;50.948;10.696;2023-09-19T00:50:31;1.83;;;0.75;;
30571;SDS011;17348;50.948;10.696;2023-09-19T00:53:34;3.40;;;1.05;;
30571;SDS011;17348;50.948;10.696;2023-09-19T00:56:36;0.80;;;0.70;;
30571;SDS011;17348;50.948;10.696;2023-09-19T00:59:43;2.40;;;0.85;;
30571;SDS011;17348;50.948;10.696;2023-09-19T01:02:45;0.95;;;0.60;;
30571;SDS011;17348;50.948;10.696;2023-09-19T01:05:48;1.50;;;0.75;;
30571;SDS011;17348;50.948;10.696;2023-09-19T01:08:51;5.20;;;1.10;;
30571;SDS011;17348;50.948;10.696;2023-09-19T01:11:57;4.88;;;1.15;;
30571;SDS011;17348;50.948;10.696;2023-09-19T01:15:06;0.98;;;0.65;;
30571;SDS011;17348;50.948;10.696;2023-09-19T01:18:16;2.75;;;0.73;;
30571;SDS011;17348;50.948;10.696;2023-09-19T01:21:35;4.57;;;1.05;;
30571;SDS011;17348;50.948;10.696;2023-09-19T01:28:35;2.67;;;1.08;;
30571;SDS011;17348;50.948;10.696;2023-09-19T01:31:49;1.90;;;0.75;;
30571;SDS011;17348;50.948;10.696;2023-09-19T01:34:55;3.10;;;0.90;;
30571;SDS011;17348;50.948;10.696;2023-09-19T01:38:04;5.78;;;1.70;;
30571;SDS011;17348;50.948;10.696;2023-09-19T01:41:09;2.13;;;1.23;;
30571;SDS011;17348;50.948;10.696;2023-09-19T01:44:15;2.40;;;1.15;;
30571;SDS011;17348;50.948;10.696;2023-09-19T01:47:26;2.40;;;1.10;;
30571;SDS011;17348;50.948;10.696;2023-09-19T01:50:35;1.50;;;0.80;;
30571;SDS011;17348;50.948;10.696;2023-09-19T01:53:43;2.17;;;1.05;;
30571;SDS011;17348;50.948;10.696;2023-09-19T01:56:56;3.20;;;1.17;;
30571;SDS011;17348;50.948;10.696;2023-09-19T02:00:06;1.60;;;1.10;;
30571;SDS011;17348;50.948;10.696;2023-09-19T02:03:11;2.03;;;0.90;;
30571;SDS011;17348;50.948;10.696;2023-09-19T02:06:14;1.35;;;0.90;;
30571;SDS011;17348;50.948;10.696;2023-09-19T02:09:18;3.00;;;1.20;;
30571;SDS011;17348;50.948;10.696;2023-09-19T02:12:20;4.90;;;1.10;;
30571;SDS011;17348;50.948;10.696;2023-09-19T02:15:23;2.30;;;1.25;;
30571;SDS011;17348;50.948;10.696;2023-09-19T02:18:26;1.90;;;0.85;;
30571;SDS011;17348;50.948;10.696;2023-09-19T02:21:29;2.92;;;0.93;;
30571;SDS011;17348;50.948;10.696;2023-09-19T02:24:31;7.70;;;1.15;;
30571;SDS011;17348;50.948;10.696;2023-09-19T02:27:33;1.95;;;1.00;;
30571;SDS011;17348;50.948;10.696;2023-09-19T02:30:36;3.13;;;1.42;;
30571;SDS011;17348;50.948;10.696;2023-09-19T02:33:40;1.88;;;1.00;;
30571;SDS011;17348;50.948;10.696;2023-09-19T02:36:42;5.22;;;1.30;;
30571;SDS011;17348;50.948;10.696;2023-09-19T02:39:46;6.05;;;1.30;;
30571;SDS011;17348;50.948;10.696;2023-09-19T02:42:49;5.43;;;1.52;;
30571;SDS011;17348;50.948;10.696;2023-09-19T02:45:54;5.18;;;1.20;;
30571;SDS011;17348;50.948;10.696;2023-09-19T02:48:59;2.95;;;0.90;;
30571;SDS011;17348;50.948;10.696;2023-09-19T02:52:01;1.85;;;1.15;;
30571;SDS011;17348;50.948;10.696;2023-09-19T02:55:04;1.08;;;0.90;;
30571;SDS011;17348;50.948;10.696;2023-09-19T02:58:10;2.85;;;0.88;;
30571;SDS011;17348;50.948;10.696;2023-09-19T03:01:12;1.92;;;1.10;;
30571;SDS011;17348;50.948;10.696;2023-09-19T03:04:16;3.20;;;0.65;;
30571;SDS011;17348;50.948;10.696;2023-09-19T03:07:20;4.78;;;1.20;;
30571;SDS011;17348;50.948;10.696;2023-09-19T03:10:22;4.45;;;0.98;;
30571;SDS011;17348;50.948;10.696;2023-09-19T03:13:25;1.77;;;0.80;;
30571;SDS011;17348;50.948;10.696;2023-09-19T03:16:27;1.63;;;1.20;;
30571;SDS011;17348;50.948;10.696;2023-09-19T03:19:31;2.47;;;0.98;;
30571;SDS011;17348;50.948;10.696;2023-09-19T03:22:34;3.53;;;1.17;;
30571;SDS011;17348;50.948;10.696;2023-09-19T03:25:36;2.25;;;1.17;;
30571;SDS011;17348;50.948;10.696;2023-09-19T03:28:39;3.58;;;0.93;;
30571;SDS011;17348;50.948;10.696;2023-09-19T03:31:43;2.35;;;1.00;;
30571;SDS011;17348;50.948;10.696;2023-09-19T03:34:47;4.72;;;1.65;;
30571;SDS011;17348;50.948;10.696;2023-09-19T03:37:50;2.50;;;0.90;;
30571;SDS011;17348;50.948;10.696;2023-09-19T03:40:53;1.75;;;1.00;;
30571;SDS011;17348;50.948;10.696;2023-09-19T03:43:56;3.42;;;1.10;;
30571;SDS011;17348;50.948;10.696;2023-09-19T03:46:58;3.45;;;1.00;;
30571;SDS011;17348;50.948;10.696;2023-09-19T03:50:02;1.63;;;0.85;;
30571;SDS011;17348;50.948;10.696;2023-09-19T03:53:05;4.18;;;1.00;;
30571;SDS011;17348;50.948;10.696;2023-09-19T03:56:08;3.97;;;1.17;;
30571;SDS011;17348;50.948;10.696;2023-09-19T03:59:11;2.33;;;1.02;;
30571;SDS011;17348;50.948;10.696;2023-09-19T04:02:14;1.30;;;0.93;;
30571;SDS011;17348;50.948;10.696;2023-09-19T04:05:24;7.00;;;1.15;;
30571;SDS011;17348;50.948;10.696;2023-09-19T04:08:27;3.90;;;1.02;;
30571;SDS011;17348;50.948;10.696;2023-09-19T04:11:29;1.70;;;1.30;;
30571;SDS011;17348;50.948;10.696;2023-09-19T04:14:32;1.75;;;0.80;;
30571;SDS011;17348;50.948;10.696;2023-09-19T04:17:34;1.55;;;1.00;;
30571;SDS011;17348;50.948;10.696;2023-09-19T04:20:38;2.30;;;0.80;;
30571;SDS011;17348;50.948;10.696;2023-09-19T04:23:40;4.30;;;1.13;;
30571;SDS011;17348;50.948;10.696;2023-09-19T04:26:43;2.05;;;0.82;;
30571;SDS011;17348;50.948;10.696;2023-09-19T04:29:45;1.58;;;0.93;;
30571;SDS011;17348;50.948;10.696;2023-09-19T04:32:47;3.70;;;1.10;;
30571;SDS011;17348;50.948;10.696;2023-09-19T04:35:52;3.05;;;1.05;;
30571;SDS011;17348;50.948;10.696;2023-09-19T04:38:55;3.75;;;0.70;;
30571;SDS011;17348;50.948;10.696;2023-09-19T04:41:58;3.92;;;1.02;;
30571;SDS011;17348;50.948;10.696;2023-09-19T04:45:00;4.10;;;1.05;;
30571;SDS011;17348;50.948;10.696;2023-09-19T04:48:04;2.38;;;1.17;;
30571;SDS011;17348;50.948;10.696;2023-09-19T04:51:10;5.75;;;1.20;;
30571;SDS011;17348;50.948;10.696;2023-09-19T04:54:14;5.57;;;1.30;;
30571;SDS011;17348;50.948;10.696;2023-09-19T04:57:16;4.55;;;1.05;;
30571;SDS011;17348;50.948;10.696;2023-09-19T05:00:19;4.15;;;1.38;;
30571;SDS011;17348;50.948;10.696;2023-09-19T05:03:24;4.32;;;0.90;;
30571;SDS011;17348;50.948;10.696;2023-09-19T05:06:28;6.85;;;1.25;;
30571;SDS011;17348;50.948;10.696;2023-09-19T05:09:30;3.63;;;1.10;;
30571;SDS011;17348;50.948;10.696;2023-09-19T05:12:35;2.00;;;1.15;;
30571;SDS011;17348;50.948;10.696;2023-09-19T05:15:37;6.88;;;1.52;;
30571;SDS011;17348;50.948;10.696;2023-09-19T05:18:40;3.38;;;1.00;;
30571;SDS011;17348;50.948;10.696;2023-09-19T05:21:44;2.47;;;1.13;;
30571;SDS011;17348;50.948;10.696;2023-09-19T05:24:47;4.88;;;1.40;;
30571;SDS011;17348;50.948;10.696;2023-09-19T05:27:49;2.05;;;0.80;;
30571;SDS011;17348;50.948;10.696;2023-09-19T05:30:54;7.70;;;1.30;;
30571;SDS011;17348;50.948;10.696;2023-09-19T05:33:59;4.00;;;0.80;;
30571;SDS011;17348;50.948;10.696;2023-09-19T05:37:03;3.97;;;1.30;;
30571;SDS011;17348;50.948;10.696;2023-09-19T05:40:06;1.25;;;0.85;;
30571;SDS011;17348;50.948;10.696;2023-09-19T05:43:11;1.65;;;0.80;;
30571;SDS011;17348;50.948;10.696;2023-09-19T05:46:14;4.47;;;1.55;;
30571;SDS011;17348;50.948;10.696;2023-09-19T05:49:17;1.95;;;1.10;;
30571;SDS011;17348;50.948;10.696;2023-09-19T05:52:23;5.47;;;1.17;;
30571;SDS011;17348;50.948;10.696;2023-09-19T05:55:26;11.55;;;1.10;;
30571;SDS011;17348;50.948;10.696;2023-09-19T05:58:29;2.33;;;1.02;;
30571;SDS011;17348;50.948;10.696;2023-09-19T06:01:31;4.68;;;1.17;;
30571;SDS011;17348;50.948;10.696;2023-09-19T06:04:35;4.15;;;0.80;;
30571;SDS011;17348;50.948;10.696;2023-09-19T06:07:42;4.70;;;1.00;;
30571;SDS011;17348;50.948;10.696;2023-09-19T06:10:44;2.85;;;1.10;;
30571;SDS011;17348;50.948;10.696;2023-09-19T06:13:47;2.00;;;0.90;;
30571;SDS011;17348;50.948;10.696;2023-09-19T06:16:51;2.75;;;1.08;;
30571;SDS011;17348;50.948;10.696;2023-09-19T06:19:54;4.38;;;1.15;;
30571;SDS011;17348;50.948;10.696;2023-09-19T06:22:58;3.63;;;1.20;;
30571;SDS011;17348;50.948;10.696;2023-09-19T06:26:02;4.70;;;1.13;;
30571;SDS011;17348;50.948;10.696;2023-09-19T06:29:07;8.85;;;1.80;;
30571;SDS011;17348;50.948;10.696;2023-09-19T06:32:09;6.18;;;1.45;;
30571;SDS011;17348;50.948;10.696;2023-09-19T06:35:12;3.58;;;1.40;;
30571;SDS011;17348;50.948;10.696;2023-09-19T06:38:17;8.68;;;1.77;;
30571;SDS011;17348;50.948;10.696;2023-09-19T06:41:19;2.45;;;1.00;;
30571;SDS011;17348;50.948;10.696;2023-09-19T06:44:25;4.03;;;1.30;;
30571;SDS011;17348;50.948;10.696;2023-09-19T06:47:30;2.80;;;1.15;;
30571;SDS011;17348;50.948;10.696;2023-09-19T06:50:32;5.97;;;1.05;;
30571;SDS011;17348;50.948;10.696;2023-09-19T06:53:36;4.75;;;1.67;;
30571;SDS011;17348;50.948;10.696;2023-09-19T06:56:40;5.38;;;0.90;;
30571;SDS011;17348;50.948;10.696;2023-09-19T06:59:43;2.10;;;0.93;;
30571;SDS011;17348;50.948;10.696;2023-09-19T07:02:54;3.08;;;0.98;;
30571;SDS011;17348;50.948;10.696;2023-09-19T07:05:57;0.80;;;0.60;;
30571;SDS011;17348;50.948;10.696;2023-09-19T07:09:01;2.30;;;1.08;;
30571;SDS011;17348;50.948;10.696;2023-09-19T07:12:05;3.05;;;1.05;;
30571;SDS011;17348;50.948;10.696;2023-09-19T07:15:08;1.95;;;0.90;;
30571;SDS011;17348;50.948;10.696;2023-09-19T07:18:10;5.88;;;1.30;;
30571;SDS011;17348;50.948;10.696;2023-09-19T07:21:14;2.95;;;0.98;;
30571;SDS011;17348;50.948;10.696;2023-09-19T07:24:18;4.85;;;0.80;;
30571;SDS011;17348;50.948;10.696;2023-09-19T07:27:23;4.53;;;1.35;;
30571;SDS011;17348;50.948;10.696;2023-09-19T07:30:25;6.45;;;0.98;;
30571;SDS011;17348;50.948;10.696;2023-09-19T07:33:28;2.53;;;0.95;;
30571;SDS011;17348;50.948;10.696;2023-09-19T07:36:30;3.40;;;1.08;;
30571;SDS011;17348;50.948;10.696;2023-09-19T07:39:34;1.30;;;0.90;;
30571;SDS011;17348;50.948;10.696;2023-09-19T07:42:37;3.65;;;0.77;;
30571;SDS011;17348;50.948;10.696;2023-09-19T07:45:41;3.33;;;0.90;;
30571;SDS011;17348;50.948;10.696;2023-09-19T07:48:43;6.47;;;1.17;;
30571;SDS011;17348;50.948;10.696;2023-09-19T07:51:49;8.55;;;1.02;;
30571;SDS011;17348;50.948;10.696;2023-09-19T07:54:55;4.45;;;0.88;;
30571;SDS011;17348;50.948;10.696;2023-09-19T07:57:58;3.45;;;1.08;;
30571;SDS011;17348;50.948;10.696;2023-09-19T08:01:04;6.13;;;1.33;;
30571;SDS011;17348;50.948;10.696;2023-09-19T08:04:07;4.40;;;1.20;;
30571;SDS011;17348;50.948;10.696;2023-09-19T08:07:09;4.78;;;1.02;;
30571;SDS011;17348;50.948;10.696;2023-09-19T08:10:13;1.30;;;0.60;;
30571;SDS011;17348;50.948;10.696;2023-09-19T08:13:16;3.78;;;1.35;;
30571;SDS011;17348;50.948;10.696;2023-09-19T08:16:18;2.58;;;1.08;;
30571;SDS011;17348;50.948;10.696;2023-09-19T08:19:22;4.35;;;0.90;;
30571;SDS011;17348;50.948;10.696;2023-09-19T08:22:28;3.08;;;0.77;;
30571;SDS011;17348;50.948;10.696;2023-09-19T08:25:33;9.73;;;1.20;;
30571;SDS011;17348;50.948;10.696;2023-09-19T08:28:36;2.97;;;0.90;;
30571;SDS011;17348;50.948;10.696;2023-09-19T08:31:41;2.28;;;0.80;;
30571;SDS011;17348;50.948;10.696;2023-09-19T08:34:44;10.93;;;1.08;;
30571;SDS011;17348;50.948;10.696;2023-09-19T08:37:46;5.10;;;1.30;;
30571;SDS011;17348;50.948;10.696;2023-09-19T08:40:50;3.05;;;1.52;;
30571;SDS011;17348;50.948;10.696;2023-09-19T08:43:52;8.48;;;1.23;;
30571;SDS011;17348;50.948;10.696;2023-09-19T08:46:55;3.90;;;1.40;;
30571;SDS011;17348;50.948;10.696;2023-09-19T08:50:04;4.30;;;1.13;;
30571;SDS011;17348;50.948;10.696;2023-09-19T08:53:15;4.30;;;0.85;;
30571;SDS011;17348;50.948;10.696;2023-09-19T08:56:31;4.45;;;1.10;;
30571;SDS011;17348;50.948;10.696;2023-09-19T08:59:34;3.08;;;1.40;;
30571;SDS011;17348;50.948;10.696;2023-09-19T09:02:40;3.58;;;0.98;;
30571;SDS011;17348;50.948;10.696;2023-09-19T09:05:44;6.18;;;2.42;;
30571;SDS011;17348;50.948;10.696;2023-09-19T09:08:48;6.30;;;1.48;;
30571;SDS011;17348;50.948;10.696;2023-09-19T09:11:53;6.20;;;1.42;;
30571;SDS011;17348;50.948;10.696;2023-09-19T09:14:57;3.53;;;1.10;;
30571;SDS011;17348;50.948;10.696;2023-09-19T09:17:59;3.20;;;1.25;;
30571;SDS011;17348;50.948;10.696;2023-09-19T09:21:02;1.83;;;0.82;;
30571;SDS011;17348;50.948;10.696;2023-09-19T09:24:25;3.90;;;1.20;;
30571;SDS011;17348;50.948;10.696;2023-09-19T09:27:31;2.33;;;0.75;;
30571;SDS011;17348;50.948;10.696;2023-09-19T09:30:35;7.05;;;1.73;;
30571;SDS011;17348;50.948;10.696;2023-09-19T09:33:38;3.67;;;1.30;;
30571;SDS011;17348;50.948;10.696;2023-09-19T09:36:42;2.25;;;0.88;;
30571;SDS011;17348;50.948;10.696;2023-09-19T09:39:50;5.43;;;1.50;;
30571;SDS011;17348;50.948;10.696;2023-09-19T09:42:55;10.48;;;1.55;;
30571;SDS011;17348;50.948;10.696;2023-09-19T09:46:10;3.97;;;1.20;;
30571;SDS011;17348;50.948;10.696;2023-09-19T09:49:31;6.97;;;1.33;;
30571;SDS011;17348;50.948;10.696;2023-09-19T09:52:44;6.30;;;1.45;;
30571;SDS011;17348;50.948;10.696;2023-09-19T09:55:59;3.95;;;0.77;;
30571;SDS011;17348;50.948;10.696;2023-09-19T09:59:07;2.03;;;0.98;;
30571;SDS011;17348;50.948;10.696;2023-09-19T10:02:10;6.72;;;1.38;;
30571;SDS011;17348;50.948;10.696;2023-09-19T10:05:14;10.13;;;1.00;;
30571;SDS011;17348;50.948;10.696;2023-09-19T10:08:22;4.75;;;1.33;;
30571;SDS011;17348;50.948;10.696;2023-09-19T10:11:24;4.90;;;1.00;;
30571;SDS011;17348;50.948;10.696;2023-09-19T10:14:33;6.05;;;1.30;;
30571;SDS011;17348;50.948;10.696;2023-09-19T10:17:39;1.88;;;1.00;;
30571;SDS011;17348;50.948;10.696;2023-09-19T10:20:44;8.32;;;1.30;;
30571;SDS011;17348;50.948;10.696;2023-09-19T10:23:49;6.88;;;1.33;;
30571;SDS011;17348;50.948;10.696;2023-09-19T10:26:57;2.67;;;1.23;;
30571;SDS011;17348;50.948;10.696;2023-09-19T10:30:03;6.40;;;1.25;;
30571;SDS011;17348;50.948;10.696;2023-09-19T10:33:09;3.60;;;1.20;;
30571;SDS011;17348;50.948;10.696;2023-09-19T10:36:11;4.03;;;1.65;;
30571;SDS011;17348;50.948;10.696;2023-09-19T10:39:15;5.25;;;1.27;;
30571;SDS011;17348;50.948;10.696;2023-09-19T10:42:20;6.78;;;1.60;;
30571;SDS011;17348;50.948;10.696;2023-09-19T10:45:26;3.05;;;1.33;;
30571;SDS011;17348;50.948;10.696;2023-09-19T10:48:33;10.02;;;1.50;;
30571;SDS011;17348;50.948;10.696;2023-09-19T10:51:39;4.25;;;1.38;;
30571;SDS011;17348;50.948;10.696;2023-09-19T10:54:45;3.28;;;1.38;;
30571;SDS011;17348;50.948;10.696;2023-09-19T10:57:51;3.63;;;1.45;;
30571;SDS011;17348;50.948;10.696;2023-09-19T11:00:56;8.25;;;2.00;;
30571;SDS011;17348;50.948;10.696;2023-09-19T11:04:20;5.25;;;1.77;;
30571;SDS011;17348;50.948;10.696;2023-09-19T11:07:24;3.97;;;1.77;;
30571;SDS011;17348;50.948;10.696;2023-09-19T11:20:33;4.30;;;1.60;;
30571;SDS011;17348;50.948;10.696;2023-09-19T11:27:27;13.50;;;1.40;;
30571;SDS011;17348;50.948;10.696;2023-09-19T11:30:30;7.95;;;1.75;;
30571;SDS011;17348;50.948;10.696;2023-09-19T11:33:34;10.25;;;1.60;;
30571;SDS011;17348;50.948;10.696;2023-09-19T11:36:39;3.42;;;1.70;;
30571;SDS011;17348;50.948;10.696;2023-09-19T11:39:43;9.20;;;1.92;;
30571;SDS011;17348;50.948;10.696;2023-09-19T11:43:29;7.07;;;2.08;;
30571;SDS011;17348;50.948;10.696;2023-09-19T11:46:51;4.75;;;1.52;;
30571;SDS011;17348;50.948;10.696;2023-09-19T11:49:55;4.32;;;1.70;;
30571;SDS011;17348;50.948;10.696;2023-09-19T11:52:59;10.55;;;1.67;;
30571;SDS011;17348;50.948;10.696;2023-09-19T11:56:04;4.00;;;1.52;;
30571;SDS011;17348;50.948;10.696;2023-09-19T11:59:10;3.60;;;2.00;;
30571;SDS011;17348;50.948;10.696;2023-09-19T12:02:15;3.92;;;1.70;;
30571;SDS011;17348;50.948;10.696;2023-09-19T12:05:30;3.47;;;1.55;;
30571;SDS011;17348;50.948;10.696;2023-09-19T12:08:34;5.38;;;1.80;;
30571;SDS011;17348;50.948;10.696;2023-09-19T12:11:41;7.80;;;1.60;;
30571;SDS011;17348;50.948;10.696;2023-09-19T12:14:47;10.05;;;2.30;;
30571;SDS011;17348;50.948;10.696;2023-09-19T12:17:50;9.90;;;1.77;;
30571;SDS011;17348;50.948;10.696;2023-09-19T12:20:56;6.43;;;1.75;;
30571;SDS011;17348;50.948;10.696;2023-09-19T12:23:59;7.68;;;2.15;;
30571;SDS011;17348;50.948;10.696;2023-09-19T12:27:12;4.78;;;1.80;;
30571;SDS011;17348;50.948;10.696;2023-09-19T12:30:15;4.25;;;1.52;;
30571;SDS011;17348;50.948;10.696;2023-09-19T12:33:20;4.90;;;1.83;;
30571;SDS011;17348;50.948;10.696;2023-09-19T12:36:27;1.75;;;1.13;;
30571;SDS011;17348;50.948;10.696;2023-09-19T12:39:35;6.47;;;1.95;;
30571;SDS011;17348;50.948;10.696;2023-09-19T12:42:37;8.10;;;1.70;;
30571;SDS011;17348;50.948;10.696;2023-09-19T12:45:42;7.18;;;1.83;;
30571;SDS011;17348;50.948;10.696;2023-09-19T12:48:45;5.43;;;1.52;;
30571;SDS011;17348;50.948;10.696;2023-09-19T12:51:50;8.73;;;2.25;;
30571;SDS011;17348;50.948;10.696;2023-09-19T12:55:02;6.47;;;1.80;;
30571;SDS011;17348;50.948;10.696;2023-09-19T12:58:08;7.60;;;1.85;;
30571;SDS011;17348;50.948;10.696;2023-09-19T13:01:14;4.50;;;2.03;;
30571;SDS011;17348;50.948;10.696;2023-09-19T13:04:20;8.15;;;1.98;;
30571;SDS011;17348;50.948;10.696;2023-09-19T13:07:44;5.93;;;1.90;;
30571;SDS011;17348;50.948;10.696;2023-09-19T13:11:01;5.88;;;2.13;;
30571;SDS011;17348;50.948;10.696;2023-09-19T13:14:14;5.57;;;2.22;;
30571;SDS011;17348;50.948;10.696;2023-09-19T13:17:19;7.82;;;2.00;;
30571;SDS011;17348;50.948;10.696;2023-09-19T13:20:23;3.33;;;1.70;;
30571;SDS011;17348;50.948;10.696;2023-09-19T13:23:29;7.80;;;1.90;;
30571;SDS011;17348;50.948;10.696;2023-09-19T13:26:34;5.93;;;1.70;;
30571;SDS011;17348;50.948;10.696;2023-09-19T13:29:38;8.80;;;2.10;;
30571;SDS011;17348;50.948;10.696;2023-09-19T13:32:43;7.15;;;1.92;;
30571;SDS011;17348;50.948;10.696;2023-09-19T13:35:47;6.00;;;1.63;;
30571;SDS011;17348;50.948;10.696;2023-09-19T13:38:53;5.90;;;2.00;;
30571;SDS011;17348;50.948;10.696;2023-09-19T13:41:56;4.13;;;1.65;;
30571;SDS011;17348;50.948;10.696;2023-09-19T13:44:58;12.15;;;2.13;;
30571;SDS011;17348;50.948;10.696;2023-09-19T13:48:00;3.35;;;1.80;;
30571;SDS011;17348;50.948;10.696;2023-09-19T13:51:03;6.25;;;1.92;;
30571;SDS011;17348;50.948;10.696;2023-09-19T13:54:07;9.57;;;2.50;;
30571;SDS011;17348;50.948;10.696;2023-09-19T13:57:09;4.35;;;1.80;;
30571;SDS011;17348;50.948;10.696;2023-09-19T14:00:12;3.97;;;1.73;;
30571;SDS011;17348;50.948;10.696;2023-09-19T14:03:16;6.22;;;1.88;;
30571;SDS011;17348;50.948;10.696;2023-09-19T14:06:21;5.65;;;1.60;;
30571;SDS011;17348;50.948;10.696;2023-09-19T14:09:25;10.88;;;1.83;;
30571;SDS011;17348;50.948;10.696;2023-09-19T14:12:27;6.68;;;1.75;;
30571;SDS011;17348;50.948;10.696;2023-09-19T14:15:29;5.00;;;1.85;;
30571;SDS011;17348;50.948;10.696;2023-09-19T14:18:35;4.35;;;2.25;;
30571;SDS011;17348;50.948;10.696;2023-09-19T14:21:37;9.00;;;2.25;;
30571;SDS011;17348;50.948;10.696;2023-09-19T14:24:41;6.82;;;2.33;;
30571;SDS011;17348;50.948;10.696;2023-09-19T14:27:44;5.55;;;1.73;;
30571;SDS011;17348;50.948;10.696;2023-09-19T14:30:48;7.40;;;1.90;;
30571;SDS011;17348;50.948;10.696;2023-09-19T14:33:53;6.43;;;1.63;;
30571;SDS011;17348;50.948;10.696;2023-09-19T14:36:56;5.65;;;1.83;;
30571;SDS011;17348;50.948;10.696;2023-09-19T14:39:59;7.95;;;2.13;;
30571;SDS011;17348;50.948;10.696;2023-09-19T14:43:08;6.68;;;2.13;;
30571;SDS011;17348;50.948;10.696;2023-09-19T14:46:11;4.93;;;1.63;;
30571;SDS011;17348;50.948;10.696;2023-09-19T14:49:14;7.30;;;1.83;;
30571;SDS011;17348;50.948;10.696;2023-09-19T14:52:17;8.35;;;2.30;;
30571;SDS011;17348;50.948;10.696;2023-09-19T14:55:21;9.55;;;2.28;;
30571;SDS011;17348;50.948;10.696;2023-09-19T14:58:23;4.30;;;1.52;;
30571;SDS011;17348;50.948;10.696;2023-09-19T15:01:26;15.38;;;2.30;;
30571;SDS011;17348;50.948;10.696;2023-09-19T15:04:29;3.60;;;1.70;;
30571;SDS011;17348;50.948;10.696;2023-09-19T15:07:31;7.80;;;1.95;;
30571;SDS011;17348;50.948;10.696;2023-09-19T15:10:35;5.25;;;1.90;;
30571;SDS011;17348;50.948;10.696;2023-09-19T15:13:37;9.98;;;1.92;;
30571;SDS011;17348;50.948;10.696;2023-09-19T15:16:40;9.07;;;2.15;;
30571;SDS011;17348;50.948;10.696;2023-09-19T15:19:44;9.40;;;2.17;;
30571;SDS011;17348;50.948;10.696;2023-09-19T15:22:46;6.57;;;1.70;;
30571;SDS011;17348;50.948;10.696;2023-09-19T15:25:50;7.40;;;2.70;;
30571;SDS011;17348;50.948;10.696;2023-09-19T15:28:54;9.25;;;2.53;;
30571;SDS011;17348;50.948;10.696;2023-09-19T15:31:56;8.82;;;2.72;;
30571;SDS011;17348;50.948;10.696;2023-09-19T15:35:02;6.50;;;1.70;;
30571;SDS011;17348;50.948;10.696;2023-09-19T15:38:06;5.50;;;2.05;;
30571;SDS011;17348;50.948;10.696;2023-09-19T15:41:12;9.57;;;2.00;;
30571;SDS011;17348;50.948;10.696;2023-09-19T15:44:15;3.50;;;1.63;;
30571;SDS011;17348;50.948;10.696;2023-09-19T15:47:19;8.55;;;1.77;;
30571;SDS011;17348;50.948;10.696;2023-09-19T15:50:21;7.93;;;1.52;;
30571;SDS011;17348;50.948;10.696;2023-09-19T15:53:24;3.72;;;1.80;;
30571;SDS011;17348;50.948;10.696;2023-09-19T15:56:27;5.88;;;1.48;;
30571;SDS011;17348;50.948;10.696;2023-09-19T15:59:30;5.57;;;1.65;;
30571;SDS011;17348;50.948;10.696;2023-09-19T16:02:32;5.72;;;1.85;;
30571;SDS011;17348;50.948;10.696;2023-09-19T16:05:35;3.63;;;1.60;;
30571;SDS011;17348;50.948;10.696;2023-09-19T16:08:40;7.95;;;1.75;;
30571;SDS011;17348;50.948;10.696;2023-09-19T16:11:44;3.53;;;1.40;;
30571;SDS011;17348;50.948;10.696;2023-09-19T16:14:46;9.85;;;2.03;;
30571;SDS011;17348;50.948;10.696;2023-09-19T16:17:49;7.45;;;2.45;;
30571;SDS011;17348;50.948;10.696;2023-09-19T16:20:52;8.90;;;1.70;;
30571;SDS011;17348;50.948;10.696;2023-09-19T16:23:55;4.32;;;2.30;;
30571;SDS011;17348;50.948;10.696;2023-09-19T16:27:00;5.35;;;1.80;;
30571;SDS011;17348;50.948;10.696;2023-09-19T16:30:06;5.57;;;2.17;;
30571;SDS011;17348;50.948;10.696;2023-09-19T16:33:10;10.13;;;2.03;;
30571;SDS011;17348;50.948;10.696;2023-09-19T16:36:12;11.52;;;2.88;;
30571;SDS011;17348;50.948;10.696;2023-09-19T16:39:16;10.13;;;2.42;;
30571;SDS011;17348;50.948;10.696;2023-09-19T16:42:20;6.80;;;2.63;;
30571;SDS011;17348;50.948;10.696;2023-09-19T16:45:22;8.35;;;1.80;;
30571;SDS011;17348;50.948;10.696;2023-09-19T16:48:26;17.10;;;1.73;;
30571;SDS011;17348;50.948;10.696;2023-09-19T16:51:30;7.07;;;1.92;;
30571;SDS011;17348;50.948;10.696;2023-09-19T16:54:32;7.78;;;1.80;;
30571;SDS011;17348;50.948;10.696;2023-09-19T16:57:36;13.45;;;1.88;;
30571;SDS011;17348;50.948;10.696;2023-09-19T17:00:39;5.43;;;1.85;;
30571;SDS011;17348;50.948;10.696;2023-09-19T17:03:43;8.32;;;1.45;;
30571;SDS011;17348;50.948;10.696;2023-09-19T17:06:47;6.25;;;1.85;;
30571;SDS011;17348;50.948;10.696;2023-09-19T17:09:49;5.97;;;1.70;;
30571;SDS011;17348;50.948;10.696;2023-09-19T17:12:54;6.43;;;1.60;;
30571;SDS011;17348;50.948;10.696;2023-09-19T17:16:00;6.82;;;1.58;;
30571;SDS011;17348;50.948;10.696;2023-09-19T17:19:04;6.85;;;1.98;;
30571;SDS011;17348;50.948;10.696;2023-09-19T17:22:06;8.18;;;2.30;;
30571;SDS011;17348;50.948;10.696;2023-09-19T17:25:09;4.85;;;1.77;;
30571;SDS011;17348;50.948;10.696;2023-09-19T17:28:14;6.70;;;3.20;;
30571;SDS011;17348;50.948;10.696;2023-09-19T17:31:17;7.90;;;2.10;;
30571;SDS011;17348;50.948;10.696;2023-09-19T17:34:21;16.25;;;2.70;;
30571;SDS011;17348;50.948;10.696;2023-09-19T17:37:24;9.48;;;2.00;;
30571;SDS011;17348;50.948;10.696;2023-09-19T17:40:26;11.82;;;3.40;;
30571;SDS011;17348;50.948;10.696;2023-09-19T17:43:30;8.40;;;3.60;;
30571;SDS011;17348;50.948;10.696;2023-09-19T17:46:34;25.48;;;5.00;;
30571;SDS011;17348;50.948;10.696;2023-09-19T17:49:39;17.67;;;4.80;;
30571;SDS011;17348;50.948;10.696;2023-09-19T17:52:42;8.52;;;3.83;;
30571;SDS011;17348;50.948;10.696;2023-09-19T17:55:44;11.77;;;3.65;;
30571;SDS011;17348;50.948;10.696;2023-09-19T17:58:48;16.45;;;4.38;;
30571;SDS011;17348;50.948;10.696;2023-09-19T18:01:55;9.60;;;3.33;;
30571;SDS011;17348;50.948;10.696;2023-09-19T18:04:57;10.15;;;3.30;;
30571;SDS011;17348;50.948;10.696;2023-09-19T18:08:02;10.60;;;2.78;;
30571;SDS011;17348;50.948;10.696;2023-09-19T18:11:05;7.35;;;2.75;;
30571;SDS011;17348;50.948;10.696;2023-09-19T18:14:15;11.38;;;3.40;;
30571;SDS011;17348;50.948;10.696;2023-09-19T18:17:18;6.00;;;2.38;;
30571;SDS011;17348;50.948;10.696;2023-09-19T18:20:21;6.97;;;1.98;;
30571;SDS011;17348;50.948;10.696;2023-09-19T18:23:25;10.65;;;2.20;;
30571;SDS011;17348;50.948;10.696;2023-09-19T18:26:29;9.65;;;2.40;;
30571;SDS011;17348;50.948;10.696;2023-09-19T18:29:33;18.33;;;3.78;;
30571;SDS011;17348;50.948;10.696;2023-09-19T18:32:35;11.65;;;4.00;;